sensor_id;sensor_type;location;lat;lon;timestamp;P1;durP1;ratioP1;P2;durP2;ratioP2
76617;SDS011;65509;42.816;74.648;2023-05-07T00:00:54;39.30;;;5.85;;
76617;SDS011;65509;42.816;74.648;2023-05-07T00:03:20;28.20;;;5.75;;
76617;SDS011;65509;42.816;74.648;2023-05-07T00:05:46;23.48;;;4.78;;
76617;SDS011;65509;42.816;74.648;2023-05-07T00:08:12;34.40;;;5.35;;
76617;SDS011;65509;42.816;74.648;2023-05-07T00:10:43;32.53;;;5.22;;
76617;SDS011;65509;42.816;74.648;2023-05-07T00:13:17;24.33;;;4.63;;
76617;SDS011;65509;42.816;74.648;2023-05-07T00:15:42;32.15;;;4.95;;
76617;SDS011;65509;42.816;74.648;2023-05-07T00:18:08;35.53;;;4.88;;
76617;SDS011;65509;42.816;74.648;2023-05-07T00:20:33;21.55;;;3.88;;
76617;SDS011;65509;42.816;74.648;2023-05-07T00:22:59;35.38;;;4.80;;
76617;SDS011;65509;42.816;74.648;2023-05-07T00:25:24;23.65;;;4.07;;
76617;SDS011;65509;42.816;74.648;2023-05-07T00:27:50;24.55;;;4.45;;
76617;SDS011;65509;42.816;74.648;2023-05-07T00:30:15;35.08;;;5.03;;
76617;SDS011;65509;42.816;74.648;2023-05-07T00:32:41;30.63;;;5.35;;
76617;SDS011;65509;42.816;74.648;2023-05-07T00:35:06;41.80;;;6.13;;
76617;SDS011;65509;42.816;74.648;2023-05-07T00:37:32;27.08;;;5.72;;
76617;SDS011;65509;42.816;74.648;2023-05-07T00:39:58;30.95;;;5.30;;
76617;SDS011;65509;42.816;74.648;2023-05-07T00:42:24;27.33;;;4.65;;
76617;SDS011;65509;42.816;74.648;2023-05-07T00:44:49;26.48;;;4.90;;
76617;SDS011;65509;42.816;74.648;2023-05-07T00:47:15;26.48;;;5.68;;
76617;SDS011;65509;42.816;74.648;2023-05-07T00:49:47;37.13;;;5.50;;
76617;SDS011;65509;42.816;74.648;2023-05-07T00:52:25;32.90;;;5.72;;
76617;SDS011;65509;42.816;74.648;2023-05-07T00:54:51;32.85;;;5.57;;
76617;SDS011;65509;42.816;74.648;2023-05-07T00:57:17;28.17;;;5.43;;
76617;SDS011;65509;42.816;74.648;2023-05-07T00:59:42;26.73;;;5.25;;
76617;SDS011;65509;42.816;74.648;2023-05-07T01:02:17;34.65;;;5.47;;
76617;SDS011;65509;42.816;74.648;2023-05-07T01:04:48;22.23;;;4.57;;
76617;SDS011;65509;42.816;74.648;2023-05-07T01:07:13;31.33;;;5.30;;
76617;SDS011;65509;42.816;74.648;2023-05-07T01:09:39;32.60;;;5.20;;
76617;SDS011;65509;42.816;74.648;2023-05-07T01:12:05;39.45;;;6.40;;
76617;SDS011;65509;42.816;74.648;2023-05-07T01:14:31;31.08;;;5.28;;
76617;SDS011;65509;42.816;74.648;2023-05-07T01:16:58;25.88;;;5.47;;
76617;SDS011;65509;42.816;74.648;2023-05-07T01:19:23;24.45;;;5.57;;
76617;SDS011;65509;42.816;74.648;2023-05-07T01:21:49;26.13;;;5.22;;
76617;SDS011;65509;42.816;74.648;2023-05-07T01:24:16;34.22;;;5.45;;
76617;SDS011;65509;42.816;74.648;2023-05-07T01:26:42;24.27;;;4.97;;
76617;SDS011;65509;42.816;74.648;2023-05-07T01:29:08;35.38;;;5.30;;
76617;SDS011;65509;42.816;74.648;2023-05-07T01:31:34;28.17;;;4.70;;
76617;SDS011;65509;42.816;74.648;2023-05-07T01:34:00;29.83;;;5.05;;
76617;SDS011;65509;42.816;74.648;2023-05-07T01:36:26;23.02;;;4.53;;
76617;SDS011;65509;42.816;74.648;2023-05-07T01:38:53;21.85;;;4.25;;
76617;SDS011;65509;42.816;74.648;2023-05-07T01:41:19;42.90;;;6.72;;
76617;SDS011;65509;42.816;74.648;2023-05-07T01:44:00;41.25;;;5.30;;
76617;SDS011;65509;42.816;74.648;2023-05-07T01:47:01;29.35;;;5.00;;
76617;SDS011;65509;42.816;74.648;2023-05-07T01:49:27;34.40;;;5.68;;
76617;SDS011;65509;42.816;74.648;2023-05-07T01:51:53;44.05;;;5.95;;
76617;SDS011;65509;42.816;74.648;2023-05-07T01:54:18;39.45;;;5.72;;
76617;SDS011;65509;42.816;74.648;2023-05-07T01:56:45;30.60;;;5.13;;
76617;SDS011;65509;42.816;74.648;2023-05-07T01:59:13;44.70;;;6.00;;
76617;SDS011;65509;42.816;74.648;2023-05-07T02:01:38;29.15;;;5.20;;
76617;SDS011;65509;42.816;74.648;2023-05-07T02:04:04;39.42;;;6.07;;
76617;SDS011;65509;42.816;74.648;2023-05-07T02:06:29;34.55;;;5.20;;
76617;SDS011;65509;42.816;74.648;2023-05-07T02:08:55;43.88;;;6.15;;
76617;SDS011;65509;42.816;74.648;2023-05-07T02:11:21;33.78;;;4.80;;
76617;SDS011;65509;42.816;74.648;2023-05-07T02:13:46;32.88;;;4.80;;
76617;SDS011;65509;42.816;74.648;2023-05-07T02:16:12;41.20;;;5.57;;
76617;SDS011;65509;42.816;74.648;2023-05-07T02:18:39;44.53;;;5.75;;
76617;SDS011;65509;42.816;74.648;2023-05-07T02:21:05;37.83;;;4.90;;
76617;SDS011;65509;42.816;74.648;2023-05-07T02:23:30;34.45;;;4.95;;
76617;SDS011;65509;42.816;74.648;2023-05-07T02:25:56;27.85;;;4.55;;
76617;SDS011;65509;42.816;74.648;2023-05-07T02:28:21;56.05;;;13.55;;
76617;SDS011;65509;42.816;74.648;2023-05-07T02:30:47;36.38;;;9.60;;
76617;SDS011;65509;42.816;74.648;2023-05-07T02:33:12;37.60;;;6.07;;
76617;SDS011;65509;42.816;74.648;2023-05-07T02:35:39;30.73;;;4.80;;
76617;SDS011;65509;42.816;74.648;2023-05-07T02:38:04;37.58;;;4.97;;
76617;SDS011;65509;42.816;74.648;2023-05-07T02:40:30;33.80;;;4.75;;
76617;SDS011;65509;42.816;74.648;2023-05-07T02:42:58;31.45;;;4.70;;
76617;SDS011;65509;42.816;74.648;2023-05-07T02:45:24;26.48;;;4.25;;
76617;SDS011;65509;42.816;74.648;2023-05-07T02:47:49;36.63;;;5.18;;
76617;SDS011;65509;42.816;74.648;2023-05-07T02:50:15;42.45;;;5.38;;
76617;SDS011;65509;42.816;74.648;2023-05-07T02:52:40;45.47;;;5.80;;
76617;SDS011;65509;42.816;74.648;2023-05-07T02:55:06;40.03;;;5.45;;
76617;SDS011;65509;42.816;74.648;2023-05-07T02:57:32;38.50;;;6.20;;
76617;SDS011;65509;42.816;74.648;2023-05-07T02:59:57;43.72;;;6.40;;
76617;SDS011;65509;42.816;74.648;2023-05-07T03:02:23;26.10;;;4.85;;
76617;SDS011;65509;42.816;74.648;2023-05-07T03:04:48;23.08;;;4.53;;
76617;SDS011;65509;42.816;74.648;2023-05-07T03:07:14;28.15;;;4.78;;
76617;SDS011;65509;42.816;74.648;2023-05-07T03:09:39;31.27;;;4.47;;
76617;SDS011;65509;42.816;74.648;2023-05-07T03:12:07;22.92;;;3.95;;
76617;SDS011;65509;42.816;74.648;2023-05-07T03:14:33;28.98;;;4.32;;
76617;SDS011;65509;42.816;74.648;2023-05-07T03:16:58;30.98;;;5.05;;
76617;SDS011;65509;42.816;74.648;2023-05-07T03:19:23;25.90;;;4.55;;
76617;SDS011;65509;42.816;74.648;2023-05-07T03:21:49;33.08;;;5.00;;
76617;SDS011;65509;42.816;74.648;2023-05-07T03:24:14;30.90;;;4.90;;
76617;SDS011;65509;42.816;74.648;2023-05-07T03:26:41;19.95;;;3.72;;
76617;SDS011;65509;42.816;74.648;2023-05-07T03:29:06;34.72;;;4.47;;
76617;SDS011;65509;42.816;74.648;2023-05-07T03:31:32;23.42;;;3.72;;
76617;SDS011;65509;42.816;74.648;2023-05-07T03:34:00;40.03;;;4.60;;
76617;SDS011;65509;42.816;74.648;2023-05-07T03:36:26;14.88;;;3.55;;
76617;SDS011;65509;42.816;74.648;2023-05-07T03:38:52;39.08;;;4.38;;
76617;SDS011;65509;42.816;74.648;2023-05-07T03:41:18;17.75;;;3.40;;
76617;SDS011;65509;42.816;74.648;2023-05-07T03:43:46;27.90;;;4.35;;
76617;SDS011;65509;42.816;74.648;2023-05-07T03:46:13;22.10;;;4.28;;
76617;SDS011;65509;42.816;74.648;2023-05-07T03:48:39;23.42;;;4.65;;
76617;SDS011;65509;42.816;74.648;2023-05-07T03:51:06;18.27;;;3.75;;
76617;SDS011;65509;42.816;74.648;2023-05-07T03:53:32;16.48;;;3.65;;
76617;SDS011;65509;42.816;74.648;2023-05-07T03:55:57;24.15;;;3.83;;
76617;SDS011;65509;42.816;74.648;2023-05-07T03:58:23;21.23;;;3.83;;
76617;SDS011;65509;42.816;74.648;2023-05-07T04:00:48;28.25;;;4.72;;
76617;SDS011;65509;42.816;74.648;2023-05-07T04:03:32;32.60;;;4.63;;
76617;SDS011;65509;42.816;74.648;2023-05-07T04:05:58;34.03;;;4.80;;
76617;SDS011;65509;42.816;74.648;2023-05-07T04:08:23;22.75;;;3.80;;
76617;SDS011;65509;42.816;74.648;2023-05-07T04:10:54;17.95;;;4.10;;
76617;SDS011;65509;42.816;74.648;2023-05-07T04:13:19;33.30;;;4.32;;
76617;SDS011;65509;42.816;74.648;2023-05-07T04:15:48;24.88;;;4.60;;
76617;SDS011;65509;42.816;74.648;2023-05-07T04:18:14;30.98;;;4.32;;
76617;SDS011;65509;42.816;74.648;2023-05-07T04:20:39;20.05;;;3.55;;
76617;SDS011;65509;42.816;74.648;2023-05-07T04:23:05;20.00;;;3.92;;
76617;SDS011;65509;42.816;74.648;2023-05-07T04:25:32;18.10;;;3.47;;
76617;SDS011;65509;42.816;74.648;2023-05-07T04:27:57;26.75;;;3.95;;
76617;SDS011;65509;42.816;74.648;2023-05-07T04:30:23;28.00;;;5.40;;
76617;SDS011;65509;42.816;74.648;2023-05-07T04:32:49;31.48;;;5.03;;
76617;SDS011;65509;42.816;74.648;2023-05-07T04:35:14;40.47;;;6.85;;
76617;SDS011;65509;42.816;74.648;2023-05-07T04:37:41;30.65;;;4.82;;
76617;SDS011;65509;42.816;74.648;2023-05-07T04:40:07;44.72;;;6.63;;
76617;SDS011;65509;42.816;74.648;2023-05-07T04:42:32;36.65;;;6.13;;
76617;SDS011;65509;42.816;74.648;2023-05-07T04:44:58;27.15;;;4.55;;
76617;SDS011;65509;42.816;74.648;2023-05-07T04:47:23;33.22;;;4.75;;
76617;SDS011;65509;42.816;74.648;2023-05-07T04:49:49;36.40;;;4.95;;
76617;SDS011;65509;42.816;74.648;2023-05-07T04:52:14;26.88;;;4.40;;
76617;SDS011;65509;42.816;74.648;2023-05-07T04:54:40;28.25;;;4.72;;
76617;SDS011;65509;42.816;74.648;2023-05-07T04:57:06;25.90;;;4.55;;
76617;SDS011;65509;42.816;74.648;2023-05-07T04:59:42;28.42;;;4.50;;
76617;SDS011;65509;42.816;74.648;2023-05-07T05:02:07;25.98;;;4.63;;
76617;SDS011;65509;42.816;74.648;2023-05-07T05:04:36;39.42;;;5.15;;
76617;SDS011;65509;42.816;74.648;2023-05-07T05:07:02;33.50;;;5.13;;
76617;SDS011;65509;42.816;74.648;2023-05-07T05:09:46;39.85;;;5.07;;
76617;SDS011;65509;42.816;74.648;2023-05-07T05:12:12;35.70;;;4.97;;
76617;SDS011;65509;42.816;74.648;2023-05-07T05:14:37;21.58;;;3.88;;
76617;SDS011;65509;42.816;74.648;2023-05-07T05:17:03;44.50;;;4.30;;
76617;SDS011;65509;42.816;74.648;2023-05-07T05:19:28;32.05;;;5.40;;
76617;SDS011;65509;42.816;74.648;2023-05-07T05:21:54;20.10;;;3.90;;
76617;SDS011;65509;42.816;74.648;2023-05-07T05:24:29;32.72;;;4.75;;
76617;SDS011;65509;42.816;74.648;2023-05-07T05:26:54;30.23;;;5.00;;
76617;SDS011;65509;42.816;74.648;2023-05-07T05:29:20;40.90;;;6.05;;
76617;SDS011;65509;42.816;74.648;2023-05-07T05:31:45;41.33;;;9.07;;
76617;SDS011;65509;42.816;74.648;2023-05-07T05:34:11;27.35;;;5.20;;
76617;SDS011;65509;42.816;74.648;2023-05-07T05:36:36;40.72;;;6.97;;
76617;SDS011;65509;42.816;74.648;2023-05-07T05:39:02;23.02;;;5.25;;
76617;SDS011;65509;42.816;74.648;2023-05-07T05:41:27;31.05;;;4.97;;
76617;SDS011;65509;42.816;74.648;2023-05-07T05:43:55;28.63;;;5.18;;
76617;SDS011;65509;42.816;74.648;2023-05-07T05:46:23;32.50;;;4.82;;
76617;SDS011;65509;42.816;74.648;2023-05-07T05:48:49;37.83;;;4.82;;
76617;SDS011;65509;42.816;74.648;2023-05-07T05:51:14;36.63;;;5.80;;
76617;SDS011;65509;42.816;74.648;2023-05-07T05:53:40;31.55;;;5.32;;
76617;SDS011;65509;42.816;74.648;2023-05-07T05:56:05;34.15;;;5.60;;
76617;SDS011;65509;42.816;74.648;2023-05-07T05:58:31;38.97;;;6.90;;
76617;SDS011;65509;42.816;74.648;2023-05-07T06:00:56;29.10;;;5.60;;
76617;SDS011;65509;42.816;74.648;2023-05-07T06:03:23;36.65;;;8.80;;
76617;SDS011;65509;42.816;74.648;2023-05-07T06:05:48;30.90;;;5.65;;
76617;SDS011;65509;42.816;74.648;2023-05-07T06:08:14;29.50;;;5.43;;
76617;SDS011;65509;42.816;74.648;2023-05-07T06:10:42;27.98;;;4.60;;
76617;SDS011;65509;42.816;74.648;2023-05-07T06:13:08;25.13;;;5.35;;
76617;SDS011;65509;42.816;74.648;2023-05-07T06:15:33;34.53;;;5.90;;
76617;SDS011;65509;42.816;74.648;2023-05-07T06:17:59;29.13;;;5.20;;
76617;SDS011;65509;42.816;74.648;2023-05-07T06:20:24;43.25;;;6.38;;
76617;SDS011;65509;42.816;74.648;2023-05-07T06:22:50;36.97;;;6.30;;
76617;SDS011;65509;42.816;74.648;2023-05-07T06:25:15;36.63;;;10.65;;
76617;SDS011;65509;42.816;74.648;2023-05-07T06:27:41;39.47;;;8.00;;
76617;SDS011;65509;42.816;74.648;2023-05-07T06:30:06;53.60;;;9.02;;
76617;SDS011;65509;42.816;74.648;2023-05-07T06:32:32;55.97;;;9.38;;
76617;SDS011;65509;42.816;74.648;2023-05-07T06:34:57;42.72;;;8.75;;
76617;SDS011;65509;42.816;74.648;2023-05-07T06:37:23;35.60;;;8.55;;
76617;SDS011;65509;42.816;74.648;2023-05-07T06:39:48;49.92;;;7.57;;
76617;SDS011;65509;42.816;74.648;2023-05-07T06:42:14;43.72;;;7.82;;
76617;SDS011;65509;42.816;74.648;2023-05-07T06:44:39;25.35;;;6.30;;
76617;SDS011;65509;42.816;74.648;2023-05-07T06:47:05;35.00;;;7.05;;
76617;SDS011;65509;42.816;74.648;2023-05-07T06:49:30;31.98;;;8.13;;
76617;SDS011;65509;42.816;74.648;2023-05-07T06:51:56;33.35;;;7.68;;
76617;SDS011;65509;42.816;74.648;2023-05-07T06:54:22;24.13;;;5.47;;
76617;SDS011;65509;42.816;74.648;2023-05-07T06:56:47;34.83;;;7.85;;
76617;SDS011;65509;42.816;74.648;2023-05-07T06:59:13;42.80;;;10.85;;
76617;SDS011;65509;42.816;74.648;2023-05-07T07:01:38;43.53;;;7.72;;
76617;SDS011;65509;42.816;74.648;2023-05-07T07:04:03;45.15;;;7.05;;
76617;SDS011;65509;42.816;74.648;2023-05-07T07:06:29;44.42;;;7.78;;
76617;SDS011;65509;42.816;74.648;2023-05-07T07:08:57;34.17;;;6.32;;
76617;SDS011;65509;42.816;74.648;2023-05-07T07:11:22;31.52;;;5.63;;
76617;SDS011;65509;42.816;74.648;2023-05-07T07:13:48;43.30;;;6.55;;
76617;SDS011;65509;42.816;74.648;2023-05-07T07:16:13;40.17;;;6.63;;
76617;SDS011;65509;42.816;74.648;2023-05-07T07:18:39;47.15;;;15.15;;
76617;SDS011;65509;42.816;74.648;2023-05-07T07:21:04;30.52;;;7.32;;
76617;SDS011;65509;42.816;74.648;2023-05-07T07:23:30;45.47;;;7.75;;
76617;SDS011;65509;42.816;74.648;2023-05-07T07:25:55;34.75;;;8.45;;
76617;SDS011;65509;42.816;74.648;2023-05-07T07:28:24;29.08;;;6.13;;
76617;SDS011;65509;42.816;74.648;2023-05-07T07:30:49;38.70;;;7.07;;
76617;SDS011;65509;42.816;74.648;2023-05-07T07:33:15;38.33;;;7.43;;
76617;SDS011;65509;42.816;74.648;2023-05-07T07:35:43;48.03;;;10.75;;
76617;SDS011;65509;42.816;74.648;2023-05-07T07:38:08;30.55;;;6.20;;
76617;SDS011;65509;42.816;74.648;2023-05-07T07:40:34;45.55;;;8.27;;
76617;SDS011;65509;42.816;74.648;2023-05-07T07:43:00;44.55;;;7.50;;
76617;SDS011;65509;42.816;74.648;2023-05-07T07:45:26;37.08;;;7.47;;
76617;SDS011;65509;42.816;74.648;2023-05-07T07:47:52;27.02;;;5.65;;
76617;SDS011;65509;42.816;74.648;2023-05-07T07:50:17;37.47;;;6.40;;
76617;SDS011;65509;42.816;74.648;2023-05-07T07:52:43;41.17;;;5.88;;
76617;SDS011;65509;42.816;74.648;2023-05-07T07:55:12;29.55;;;6.03;;
76617;SDS011;65509;42.816;74.648;2023-05-07T07:57:37;31.38;;;6.35;;
76617;SDS011;65509;42.816;74.648;2023-05-07T08:00:06;27.95;;;5.10;;
76617;SDS011;65509;42.816;74.648;2023-05-07T08:02:32;36.92;;;5.65;;
76617;SDS011;65509;42.816;74.648;2023-05-07T08:04:58;30.95;;;5.65;;
76617;SDS011;65509;42.816;74.648;2023-05-07T08:07:23;23.85;;;4.90;;
76617;SDS011;65509;42.816;74.648;2023-05-07T08:09:49;27.77;;;4.82;;
76617;SDS011;65509;42.816;74.648;2023-05-07T08:12:14;24.30;;;5.95;;
76617;SDS011;65509;42.816;74.648;2023-05-07T08:14:40;44.13;;;8.18;;
76617;SDS011;65509;42.816;74.648;2023-05-07T08:17:08;27.08;;;5.07;;
76617;SDS011;65509;42.816;74.648;2023-05-07T08:19:35;32.50;;;6.00;;
76617;SDS011;65509;42.816;74.648;2023-05-07T08:22:00;26.48;;;5.07;;
76617;SDS011;65509;42.816;74.648;2023-05-07T08:24:26;29.65;;;5.68;;
76617;SDS011;65509;42.816;74.648;2023-05-07T08:26:51;33.28;;;5.55;;
76617;SDS011;65509;42.816;74.648;2023-05-07T08:29:17;41.40;;;10.68;;
76617;SDS011;65509;42.816;74.648;2023-05-07T08:31:42;28.20;;;5.80;;
76617;SDS011;65509;42.816;74.648;2023-05-07T08:34:10;36.03;;;9.25;;
76617;SDS011;65509;42.816;74.648;2023-05-07T08:36:36;30.77;;;6.32;;
76617;SDS011;65509;42.816;74.648;2023-05-07T08:39:01;56.42;;;21.33;;
76617;SDS011;65509;42.816;74.648;2023-05-07T08:41:27;42.88;;;8.23;;
76617;SDS011;65509;42.816;74.648;2023-05-07T08:43:56;25.00;;;5.32;;
76617;SDS011;65509;42.816;74.648;2023-05-07T08:46:22;33.33;;;5.05;;
76617;SDS011;65509;42.816;74.648;2023-05-07T08:48:50;33.95;;;6.25;;
76617;SDS011;65509;42.816;74.648;2023-05-07T08:51:16;31.73;;;5.10;;
76617;SDS011;65509;42.816;74.648;2023-05-07T08:53:42;58.95;;;18.60;;
76617;SDS011;65509;42.816;74.648;2023-05-07T08:56:10;59.40;;;18.65;;
76617;SDS011;65509;42.816;74.648;2023-05-07T08:58:36;38.38;;;11.07;;
76617;SDS011;65509;42.816;74.648;2023-05-07T09:01:08;27.75;;;5.25;;
76617;SDS011;65509;42.816;74.648;2023-05-07T09:03:35;39.85;;;6.10;;
76617;SDS011;65509;42.816;74.648;2023-05-07T09:06:00;29.40;;;5.28;;
76617;SDS011;65509;42.816;74.648;2023-05-07T09:08:26;30.88;;;4.50;;
76617;SDS011;65509;42.816;74.648;2023-05-07T09:10:52;32.33;;;5.93;;
76617;SDS011;65509;42.816;74.648;2023-05-07T09:13:17;37.17;;;6.32;;
76617;SDS011;65509;42.816;74.648;2023-05-07T09:16:01;42.58;;;5.93;;
76617;SDS011;65509;42.816;74.648;2023-05-07T09:18:34;48.00;;;8.00;;
76617;SDS011;65509;42.816;74.648;2023-05-07T09:20:59;36.75;;;7.10;;
76617;SDS011;65509;42.816;74.648;2023-05-07T09:23:25;51.80;;;9.95;;
76617;SDS011;65509;42.816;74.648;2023-05-07T09:25:50;37.65;;;6.28;;
76617;SDS011;65509;42.816;74.648;2023-05-07T09:28:15;40.25;;;6.80;;
76617;SDS011;65509;42.816;74.648;2023-05-07T09:30:44;79.53;;;15.85;;
76617;SDS011;65509;42.816;74.648;2023-05-07T09:36:04;35.90;;;6.90;;
76617;SDS011;65509;42.816;74.648;2023-05-07T09:38:30;51.45;;;7.28;;
76617;SDS011;65509;42.816;74.648;2023-05-07T09:41:06;33.92;;;6.57;;
76617;SDS011;65509;42.816;74.648;2023-05-07T09:43:32;30.40;;;7.00;;
76617;SDS011;65509;42.816;74.648;2023-05-07T09:46:05;49.13;;;9.23;;
76617;SDS011;65509;42.816;74.648;2023-05-07T09:48:31;40.28;;;6.53;;
76617;SDS011;65509;42.816;74.648;2023-05-07T09:50:57;43.63;;;7.22;;
76617;SDS011;65509;42.816;74.648;2023-05-07T09:53:26;35.42;;;6.50;;
76617;SDS011;65509;42.816;74.648;2023-05-07T09:55:52;51.15;;;16.80;;
76617;SDS011;65509;42.816;74.648;2023-05-07T09:58:18;31.88;;;7.57;;
76617;SDS011;65509;42.816;74.648;2023-05-07T10:00:44;43.13;;;7.25;;
76617;SDS011;65509;42.816;74.648;2023-05-07T10:03:09;36.58;;;6.53;;
76617;SDS011;65509;42.816;74.648;2023-05-07T10:05:35;38.33;;;6.60;;
76617;SDS011;65509;42.816;74.648;2023-05-07T10:08:01;32.50;;;5.97;;
76617;SDS011;65509;42.816;74.648;2023-05-07T10:10:27;30.33;;;5.85;;
76617;SDS011;65509;42.816;74.648;2023-05-07T10:12:53;27.20;;;5.22;;
76617;SDS011;65509;42.816;74.648;2023-05-07T10:15:22;35.85;;;5.82;;
76617;SDS011;65509;42.816;74.648;2023-05-07T10:17:53;42.13;;;5.70;;
76617;SDS011;65509;42.816;74.648;2023-05-07T10:20:18;26.95;;;8.23;;
76617;SDS011;65509;42.816;74.648;2023-05-07T10:22:45;40.53;;;6.55;;
76617;SDS011;65509;42.816;74.648;2023-05-07T10:25:16;36.20;;;6.43;;
76617;SDS011;65509;42.816;74.648;2023-05-07T10:27:43;52.20;;;9.00;;
76617;SDS011;65509;42.816;74.648;2023-05-07T10:30:26;39.92;;;6.72;;
76617;SDS011;65509;42.816;74.648;2023-05-07T10:32:53;33.72;;;7.20;;
76617;SDS011;65509;42.816;74.648;2023-05-07T10:35:21;51.47;;;15.50;;
76617;SDS011;65509;42.816;74.648;2023-05-07T10:37:47;61.92;;;13.07;;
76617;SDS011;65509;42.816;74.648;2023-05-07T10:40:13;30.15;;;5.65;;
76617;SDS011;65509;42.816;74.648;2023-05-07T10:42:38;31.98;;;6.72;;
76617;SDS011;65509;42.816;74.648;2023-05-07T10:45:13;51.75;;;11.32;;
76617;SDS011;65509;42.816;74.648;2023-05-07T10:53:39;23.65;;;4.70;;
76617;SDS011;65509;42.816;74.648;2023-05-07T10:55:39;51.90;;;7.85;;
76617;SDS011;65509;42.816;74.648;2023-05-07T10:58:23;38.17;;;8.95;;
76617;SDS011;65509;42.816;74.648;2023-05-07T11:00:56;40.30;;;7.55;;
76617;SDS011;65509;42.816;74.648;2023-05-07T11:03:22;35.30;;;5.70;;
76617;SDS011;65509;42.816;74.648;2023-05-07T11:05:47;59.67;;;12.07;;
76617;SDS011;65509;42.816;74.648;2023-05-07T11:11:17;33.10;;;5.85;;
76617;SDS011;65509;42.816;74.648;2023-05-07T11:13:46;43.50;;;8.77;;
76617;SDS011;65509;42.816;74.648;2023-05-07T11:16:24;35.67;;;8.30;;
76617;SDS011;65509;42.816;74.648;2023-05-07T11:18:52;33.42;;;7.28;;
76617;SDS011;65509;42.816;74.648;2023-05-07T11:21:34;27.40;;;5.30;;
76617;SDS011;65509;42.816;74.648;2023-05-07T11:24:00;27.90;;;6.28;;
76617;SDS011;65509;42.816;74.648;2023-05-07T11:26:26;32.53;;;7.00;;
76617;SDS011;65509;42.816;74.648;2023-05-07T11:31:37;45.00;;;8.55;;
76617;SDS011;65509;42.816;74.648;2023-05-07T11:34:03;32.17;;;5.80;;
76617;SDS011;65509;42.816;74.648;2023-05-07T11:36:30;40.88;;;6.97;;
76617;SDS011;65509;42.816;74.648;2023-05-07T11:38:59;35.30;;;6.40;;
76617;SDS011;65509;42.816;74.648;2023-05-07T11:41:35;48.97;;;9.23;;
76617;SDS011;65509;42.816;74.648;2023-05-07T11:44:01;52.33;;;11.32;;
76617;SDS011;65509;42.816;74.648;2023-05-07T11:46:27;33.75;;;7.80;;
76617;SDS011;65509;42.816;74.648;2023-05-07T11:48:56;61.83;;;19.38;;
76617;SDS011;65509;42.816;74.648;2023-05-07T11:51:23;38.30;;;8.50;;
76617;SDS011;65509;42.816;74.648;2023-05-07T11:53:48;39.90;;;8.45;;
76617;SDS011;65509;42.816;74.648;2023-05-07T11:56:15;74.70;;;26.92;;
76617;SDS011;65509;42.816;74.648;2023-05-07T11:58:41;52.78;;;7.30;;
76617;SDS011;65509;42.816;74.648;2023-05-07T12:01:13;42.08;;;6.85;;
76617;SDS011;65509;42.816;74.648;2023-05-07T12:03:42;38.08;;;7.22;;
76617;SDS011;65509;42.816;74.648;2023-05-07T12:06:09;46.35;;;7.78;;
76617;SDS011;65509;42.816;74.648;2023-05-07T12:08:38;55.72;;;12.60;;
76617;SDS011;65509;42.816;74.648;2023-05-07T12:11:03;28.23;;;6.03;;
76617;SDS011;65509;42.816;74.648;2023-05-07T12:13:31;44.35;;;6.80;;
76617;SDS011;65509;42.816;74.648;2023-05-07T12:15:57;45.25;;;9.63;;
76617;SDS011;65509;42.816;74.648;2023-05-07T12:18:23;29.75;;;5.97;;
76617;SDS011;65509;42.816;74.648;2023-05-07T12:20:48;46.50;;;11.55;;
76617;SDS011;65509;42.816;74.648;2023-05-07T12:23:14;29.05;;;7.55;;
76617;SDS011;65509;42.816;74.648;2023-05-07T12:25:40;44.58;;;8.25;;
76617;SDS011;65509;42.816;74.648;2023-05-07T12:28:21;34.53;;;8.60;;
76617;SDS011;65509;42.816;74.648;2023-05-07T12:30:47;48.97;;;12.52;;
76617;SDS011;65509;42.816;74.648;2023-05-07T12:33:16;32.28;;;8.02;;
76617;SDS011;65509;42.816;74.648;2023-05-07T12:35:42;48.95;;;14.73;;
76617;SDS011;65509;42.816;74.648;2023-05-07T12:38:14;37.13;;;11.65;;
76617;SDS011;65509;42.816;74.648;2023-05-07T12:40:41;29.15;;;8.38;;
76617;SDS011;65509;42.816;74.648;2023-05-07T12:43:06;22.75;;;6.55;;
76617;SDS011;65509;42.816;74.648;2023-05-07T12:45:36;31.20;;;8.05;;
76617;SDS011;65509;42.816;74.648;2023-05-07T12:48:02;27.67;;;6.85;;
76617;SDS011;65509;42.816;74.648;2023-05-07T12:50:36;59.83;;;22.70;;
76617;SDS011;65509;42.816;74.648;2023-05-07T12:53:03;52.33;;;18.00;;
76617;SDS011;65509;42.816;74.648;2023-05-07T12:55:31;70.32;;;22.02;;
76617;SDS011;65509;42.816;74.648;2023-05-07T12:57:56;75.15;;;21.83;;
76617;SDS011;65509;42.816;74.648;2023-05-07T13:00:38;48.53;;;12.10;;
76617;SDS011;65509;42.816;74.648;2023-05-07T13:03:04;42.20;;;8.23;;
76617;SDS011;65509;42.816;74.648;2023-05-07T13:05:33;30.08;;;5.90;;
76617;SDS011;65509;42.816;74.648;2023-05-07T13:07:58;91.90;;;35.70;;
76617;SDS011;65509;42.816;74.648;2023-05-07T13:10:24;62.17;;;27.05;;
76617;SDS011;65509;42.816;74.648;2023-05-07T13:12:50;56.97;;;21.77;;
76617;SDS011;65509;42.816;74.648;2023-05-07T13:15:18;32.20;;;6.60;;
76617;SDS011;65509;42.816;74.648;2023-05-07T13:17:44;37.33;;;6.18;;
76617;SDS011;65509;42.816;74.648;2023-05-07T13:20:09;31.45;;;6.05;;
76617;SDS011;65509;42.816;74.648;2023-05-07T13:22:35;35.85;;;6.45;;
76617;SDS011;65509;42.816;74.648;2023-05-07T13:25:01;49.10;;;12.77;;
76617;SDS011;65509;42.816;74.648;2023-05-07T13:27:26;50.97;;;12.68;;
76617;SDS011;65509;42.816;74.648;2023-05-07T13:29:53;35.70;;;11.50;;
76617;SDS011;65509;42.816;74.648;2023-05-07T13:32:19;32.55;;;6.22;;
76617;SDS011;65509;42.816;74.648;2023-05-07T13:34:44;51.88;;;8.32;;
76617;SDS011;65509;42.816;74.648;2023-05-07T13:37:13;42.08;;;13.00;;
76617;SDS011;65509;42.816;74.648;2023-05-07T13:39:38;22.50;;;5.72;;
76617;SDS011;65509;42.816;74.648;2023-05-07T13:42:04;70.57;;;27.63;;
76617;SDS011;65509;42.816;74.648;2023-05-07T13:44:29;48.28;;;16.95;;
76617;SDS011;65509;42.816;74.648;2023-05-07T13:47:07;52.75;;;14.77;;
76617;SDS011;65509;42.816;74.648;2023-05-07T13:49:32;56.45;;;17.65;;
76617;SDS011;65509;42.816;74.648;2023-05-07T13:52:01;42.03;;;7.60;;
76617;SDS011;65509;42.816;74.648;2023-05-07T13:54:26;48.55;;;14.40;;
76617;SDS011;65509;42.816;74.648;2023-05-07T14:00:21;42.03;;;10.77;;
76617;SDS011;65509;42.816;74.648;2023-05-07T14:06:23;39.33;;;8.98;;
76617;SDS011;65509;42.816;74.648;2023-05-07T14:09:03;56.75;;;15.00;;
76617;SDS011;65509;42.816;74.648;2023-05-07T14:11:31;55.72;;;16.77;;
76617;SDS011;65509;42.816;74.648;2023-05-07T14:14:00;62.03;;;14.57;;
76617;SDS011;65509;42.816;74.648;2023-05-07T14:16:30;86.07;;;34.83;;
76617;SDS011;65509;42.816;74.648;2023-05-07T14:18:55;66.85;;;24.95;;
76617;SDS011;65509;42.816;74.648;2023-05-07T14:21:21;58.72;;;14.30;;
76617;SDS011;65509;42.816;74.648;2023-05-07T14:23:46;40.78;;;12.52;;
76617;SDS011;65509;42.816;74.648;2023-05-07T14:26:12;51.88;;;16.70;;
76617;SDS011;65509;42.816;74.648;2023-05-07T14:28:38;63.88;;;26.33;;
76617;SDS011;65509;42.816;74.648;2023-05-07T14:31:06;62.17;;;22.25;;
76617;SDS011;65509;42.816;74.648;2023-05-07T14:33:31;100.20;;;37.65;;
76617;SDS011;65509;42.816;74.648;2023-05-07T14:35:57;111.68;;;43.15;;
76617;SDS011;65509;42.816;74.648;2023-05-07T14:38:26;180.45;;;72.18;;